Time;durP1;ratioP1;P1;durP2;ratioP2;P2;SDS_P1;SDS_P2;PMS_P1;PMS_P2;Temp;Humidity;BMP_temperature;BMP_pressure;BME280_temperature;BME280_humidity;BME280_pressure;Samples;Min_cycle;Max_cycle;Signal;HPM_P1;HPM_P2
2021/01/22 00:01:33;;;;;;;1.48;1.10;;;;;;;;;;5092138;28;20192;-75
2021/01/22 00:03:59;;;;;;;1.45;1.35;;;;;;;;;;5092902;28;20032;-75
2021/01/22 00:06:24;;;;;;;1.40;1.15;;;;;;;;;;5093561;28;20067;-75
2021/01/22 00:08:50;;;;;;;1.85;1.10;;;;;;;;;;5093393;28;20094;-75
2021/01/22 00:11:15;;;;;;;2.33;1.13;;;;;;;;;;5093379;28;20371;-75
2021/01/22 00:13:41;;;;;;;2.97;1.20;;;;;;;;;;5093157;28;20036;-75
2021/01/22 00:16:06;;;;;;;1.75;1.00;;;;;;;;;;5093216;28;20032;-75
2021/01/22 00:18:32;;;;;;;1.10;1.00;;;;;;;;;;5093450;28;20043;-75
2021/01/22 00:20:58;;;;;;;2.83;1.08;;;;;;;;;;5093415;28;20058;-75
2021/01/22 00:23:24;;;;;;;1.98;1.08;;;;;;;;;;5093108;28;20504;-75
2021/01/22 00:25:49;;;;;;;1.02;0.80;;;;;;;;;;5092518;28;20036;-75
2021/01/22 00:28:15;;;;;;;1.15;1.05;;;;;;;;;;5092056;28;20031;-75
2021/01/22 00:30:40;;;;;;;1.60;1.23;;;;;;;;;;5092954;28;20374;-75
2021/01/22 00:33:05;;;;;;;1.42;1.20;;;;;;;;;;5093162;28;20115;-75
2021/01/22 00:35:31;;;;;;;2.03;1.50;;;;;;;;;;5093397;28;20043;-75
2021/01/22 00:37:56;;;;;;;2.33;1.33;;;;;;;;;;5092964;28;20036;-75
2021/01/22 00:40:22;;;;;;;3.30;1.65;;;;;;;;;;5092909;28;20040;-75
2021/01/22 00:42:47;;;;;;;4.50;1.40;;;;;;;;;;5092782;28;20043;-75
2021/01/22 00:45:13;;;;;;;1.85;1.13;;;;;;;;;;5092981;28;20082;-75
2021/01/22 00:47:38;;;;;;;2.10;1.23;;;;;;;;;;5092989;28;20077;-75
2021/01/22 00:50:04;;;;;;;2.85;1.35;;;;;;;;;;5093096;28;20092;-75
2021/01/22 00:52:29;;;;;;;2.78;1.58;;;;;;;;;;5093132;28;20028;-75
2021/01/22 00:54:55;;;;;;;4.20;1.67;;;;;;;;;;5091247;28;20024;-75
2021/01/22 00:57:39;;;;;;;1.67;1.20;;;;;;;;;;5095523;28;20043;-74
2021/01/22 01:00:06;;;;;;;5.95;1.30;;;;;;;;;;5096833;28;20036;-75
2021/01/22 01:02:38;;;;;;;3.10;1.20;;;;;;;;;;5096878;28;20032;-75
2021/01/22 01:05:04;;;;;;;2.47;1.70;;;;;;;;;;5096564;28;20042;-75
2021/01/22 01:07:30;;;;;;;4.10;1.50;;;;;;;;;;5096905;28;20051;-75
2021/01/22 01:09:56;;;;;;;4.22;1.42;;;;;;;;;;5095000;28;20048;-76
2021/01/22 01:12:41;;;;;;;2.28;1.30;;;;;;;;;;5096592;28;20056;-75
2021/01/22 01:15:26;;;;;;;3.33;1.35;;;;;;;;;;5096676;28;20043;-75
2021/01/22 01:17:52;;;;;;;6.18;1.75;;;;;;;;;;5096560;28;20036;-75
2021/01/22 01:20:18;;;;;;;6.70;3.22;;;;;;;;;;5096434;28;20039;-76
2021/01/22 01:22:43;;;;;;;2.67;1.45;;;;;;;;;;5096419;28;20047;-75
2021/01/22 01:25:09;;;;;;;2.90;1.50;;;;;;;;;;5096393;28;20043;-75
2021/01/22 01:27:35;;;;;;;1.88;1.30;;;;;;;;;;5096402;28;20065;-75
2021/01/22 01:30:00;;;;;;;2.97;1.58;;;;;;;;;;5096391;28;20515;-75
2021/01/22 01:32:25;;;;;;;4.15;1.58;;;;;;;;;;5096101;28;20600;-75
2021/01/22 01:34:51;;;;;;;3.33;1.55;;;;;;;;;;5096277;28;20051;-76
2021/01/22 01:37:16;;;;;;;2.83;1.55;;;;;;;;;;5096038;28;20542;-75
2021/01/22 01:39:41;;;;;;;2.60;1.42;;;;;;;;;;5095929;28;20431;-75
2021/01/22 01:42:07;;;;;;;4.35;1.50;;;;;;;;;;5096233;28;20370;-75
2021/01/22 01:44:32;;;;;;;5.28;1.60;;;;;;;;;;5096094;28;20047;-75
2021/01/22 01:46:58;;;;;;;3.40;1.38;;;;;;;;;;5095878;28;20050;-75
2021/01/22 01:49:24;;;;;;;3.00;1.20;;;;;;;;;;5095963;28;20090;-75
2021/01/22 01:51:49;;;;;;;4.95;1.38;;;;;;;;;;5095752;28;20036;-75
2021/01/22 01:54:18;;;;;;;2.80;1.45;;;;;;;;;;5095540;28;20093;-75
2021/01/22 01:56:44;;;;;;;4.82;1.48;;;;;;;;;;5095746;28;20035;-75
2021/01/22 01:59:09;;;;;;;2.70;1.20;;;;;;;;;;5095832;28;20032;-75
2021/01/22 02:01:36;;;;;;;5.25;1.55;;;;;;;;;;5095388;28;20040;-75
2021/01/22 02:04:02;;;;;;;2.38;1.20;;;;;;;;;;5095677;28;20042;-75
2021/01/22 02:06:28;;;;;;;6.05;1.50;;;;;;;;;;5095692;28;20032;-75
2021/01/22 02:08:54;;;;;;;3.40;1.17;;;;;;;;;;5094176;28;20024;-76
2021/01/22 02:11:20;;;;;;;2.25;1.40;;;;;;;;;;5095586;28;20583;-75
2021/01/22 02:13:49;;;;;;;6.72;1.90;;;;;;;;;;5095337;28;20077;-75
2021/01/22 02:16:15;;;;;;;4.28;1.58;;;;;;;;;;5094105;28;20032;-75
2021/01/22 02:18:43;;;;;;;4.22;1.48;;;;;;;;;;5095411;28;20073;-76
2021/01/22 02:21:30;;;;;;;2.35;1.17;;;;;;;;;;5095233;28;20069;-75
2021/01/22 02:24:05;;;;;;;3.22;1.45;;;;;;;;;;5095215;28;20046;-75
2021/01/22 02:26:30;;;;;;;2.10;1.40;;;;;;;;;;5093730;28;20036;-75
2021/01/22 02:29:00;;;;;;;2.67;1.23;;;;;;;;;;5095410;28;20035;-76
2021/01/22 02:31:25;;;;;;;5.22;2.78;;;;;;;;;;5095140;28;20040;-76
2021/01/22 02:33:54;;;;;;;3.28;1.40;;;;;;;;;;5095143;28;20039;-75
2021/01/22 02:36:21;;;;;;;8.00;2.42;;;;;;;;;;5094978;28;20115;-75
2021/01/22 02:38:48;;;;;;;3.28;1.48;;;;;;;;;;5093415;28;20413;-76
2021/01/22 02:41:17;;;;;;;2.63;1.67;;;;;;;;;;5094701;28;20036;-76
2021/01/22 02:43:43;;;;;;;4.88;1.30;;;;;;;;;;5093628;28;20051;-76
2021/01/22 02:46:09;;;;;;;2.42;1.15;;;;;;;;;;5094508;28;20055;-76
2021/01/22 02:48:35;;;;;;;2.97;1.40;;;;;;;;;;5094681;28;20470;-76
2021/01/22 02:51:11;;;;;;;4.28;1.25;;;;;;;;;;5094700;28;20085;-76
2021/01/22 02:53:37;;;;;;;3.50;1.42;;;;;;;;;;5094560;28;20032;-76
2021/01/22 02:56:09;;;;;;;7.13;1.13;;;;;;;;;;5094530;28;20074;-76
2021/01/22 02:58:49;;;;;;;6.75;1.67;;;;;;;;;;5093911;28;20088;-76
2021/01/22 03:01:18;;;;;;;2.65;1.50;;;;;;;;;;5093368;28;20638;-76
2021/01/22 03:03:56;;;;;;;3.53;1.92;;;;;;;;;;5093931;28;20134;-76
2021/01/22 03:06:27;;;;;;;5.18;1.65;;;;;;;;;;5094421;28;20079;-76
2021/01/22 03:08:55;;;;;;;2.17;1.40;;;;;;;;;;5094084;28;20044;-76
2021/01/22 03:11:23;;;;;;;2.70;1.20;;;;;;;;;;5094174;28;20441;-76
2021/01/22 03:13:52;;;;;;;4.63;1.50;;;;;;;;;;5093200;28;20363;-76
2021/01/22 03:16:18;;;;;;;3.03;1.60;;;;;;;;;;5093536;28;20039;-77
2021/01/22 03:18:57;;;;;;;3.28;1.27;;;;;;;;;;5093356;28;20031;-76
2021/01/22 03:21:22;;;;;;;4.05;1.40;;;;;;;;;;5093063;28;20036;-77
2021/01/22 03:23:48;;;;;;;5.07;1.60;;;;;;;;;;5093425;28;20051;-76
2021/01/22 03:26:13;;;;;;;4.22;1.58;;;;;;;;;;5091715;28;20040;-76
2021/01/22 03:28:38;;;;;;;3.95;1.75;;;;;;;;;;5093366;28;20409;-76
2021/01/22 03:31:04;;;;;;;1.58;1.17;;;;;;;;;;5093465;28;20036;-76
2021/01/22 03:33:29;;;;;;;4.22;1.48;;;;;;;;;;5094069;28;20046;-76
2021/01/22 03:35:54;;;;;;;4.72;1.67;;;;;;;;;;5094082;28;20111;-76
2021/01/22 03:38:21;;;;;;;4.30;1.30;;;;;;;;;;5092327;28;20122;-76
2021/01/22 03:40:46;;;;;;;3.90;1.20;;;;;;;;;;5093894;28;20024;-76
2021/01/22 03:43:11;;;;;;;3.03;1.20;;;;;;;;;;5094013;28;20381;-76
2021/01/22 03:45:37;;;;;;;2.40;1.20;;;;;;;;;;5093699;28;20448;-76
2021/01/22 03:48:03;;;;;;;3.20;1.15;;;;;;;;;;5093979;28;20066;-76
2021/01/22 03:50:28;;;;;;;1.77;1.13;;;;;;;;;;5093422;28;20114;-77
2021/01/22 03:52:53;;;;;;;7.28;1.50;;;;;;;;;;5093991;28;20425;-76
2021/01/22 03:55:19;;;;;;;2.08;1.20;;;;;;;;;;5093512;28;20036;-76
2021/01/22 03:57:44;;;;;;;1.90;1.02;;;;;;;;;;5093737;28;20036;-77
2021/01/22 04:00:10;;;;;;;3.17;1.13;;;;;;;;;;5094226;28;20040;-77
2021/01/22 04:02:35;;;;;;;5.05;1.20;;;;;;;;;;5093546;28;20032;-77
2021/01/22 04:05:01;;;;;;;2.53;1.27;;;;;;;;;;5093639;28;20588;-77
2021/01/22 04:07:27;;;;;;;3.53;0.93;;;;;;;;;;5093523;28;20020;-77
2021/01/22 04:09:52;;;;;;;3.42;1.10;;;;;;;;;;5093089;28;20035;-77
2021/01/22 04:12:17;;;;;;;1.70;0.98;;;;;;;;;;5093459;28;20123;-77
2021/01/22 04:14:43;;;;;;;1.50;0.90;;;;;;;;;;5093429;28;20064;-77
2021/01/22 04:17:08;;;;;;;4.30;1.52;;;;;;;;;;5092219;28;20040;-77
2021/01/22 04:19:33;;;;;;;2.40;1.10;;;;;;;;;;5101326;28;20092;-77
2021/01/22 04:21:59;;;;;;;1.63;0.88;;;;;;;;;;5113875;28;20035;-77
2021/01/22 04:24:24;;;;;;;1.60;1.17;;;;;;;;;;5112820;28;20601;-78
2021/01/22 04:26:51;;;;;;;1.73;0.80;;;;;;;;;;5113140;28;20108;-77
2021/01/22 04:29:17;;;;;;;2.97;0.80;;;;;;;;;;5113629;28;20040;-77
2021/01/22 04:31:42;;;;;;;1.17;0.90;;;;;;;;;;5114563;28;20077;-77
2021/01/22 04:34:08;;;;;;;2.30;0.90;;;;;;;;;;5117879;28;20040;-77
2021/01/22 04:36:33;;;;;;;1.65;0.80;;;;;;;;;;5117539;28;20114;-77
2021/01/22 04:38:59;;;;;;;2.55;1.10;;;;;;;;;;5117624;28;20461;-77
2021/01/22 04:41:24;;;;;;;3.67;0.85;;;;;;;;;;5117771;28;20023;-76
2021/01/22 04:43:50;;;;;;;3.28;0.90;;;;;;;;;;5117824;28;20059;-76
2021/01/22 04:46:16;;;;;;;1.77;1.15;;;;;;;;;;5117464;28;20051;-76
2021/01/22 04:48:42;;;;;;;1.27;0.77;;;;;;;;;;5116451;28;20031;-76
2021/01/22 04:51:09;;;;;;;2.75;1.30;;;;;;;;;;5097071;28;20486;-75
2021/01/22 04:53:36;;;;;;;4.18;1.10;;;;;;;;;;5098015;28;20040;-75
2021/01/22 04:56:03;;;;;;;1.83;0.82;;;;;;;;;;5097098;28;20075;-75
2021/01/22 04:58:32;;;;;;;5.80;0.85;;;;;;;;;;5096879;28;20096;-76
2021/01/22 05:00:57;;;;;;;1.15;0.60;;;;;;;;;;5097229;28;20547;-75
2021/01/22 05:03:26;;;;;;;1.98;0.75;;;;;;;;;;5097236;28;20032;-76
2021/01/22 05:06:01;;;;;;;1.83;0.60;;;;;;;;;;5097140;28;20050;-76
2021/01/22 05:08:26;;;;;;;0.77;0.65;;;;;;;;;;5096858;28;20042;-76
2021/01/22 05:10:52;;;;;;;0.73;0.55;;;;;;;;;;5096656;28;20118;-77
2021/01/22 05:13:17;;;;;;;1.13;0.50;;;;;;;;;;5096609;28;20036;-77
2021/01/22 05:16:09;;;;;;;0.35;0.35;;;;;;;;;;5096922;28;20038;-76
2021/01/22 05:18:35;;;;;;;0.65;0.28;;;;;;;;;;5096579;28;20028;-76
2021/01/22 05:21:13;;;;;;;0.73;0.40;;;;;;;;;;5116885;28;20118;-76
2021/01/22 05:23:40;;;;;;;0.40;0.40;;;;;;;;;;5116926;28;20466;-76
2021/01/22 05:26:07;;;;;;;0.57;0.50;;;;;;;;;;5116750;28;20035;-77
2021/01/22 05:28:33;;;;;;;0.70;0.60;;;;;;;;;;5116830;28;20447;-78
2021/01/22 05:30:59;;;;;;;0.40;0.40;;;;;;;;;;5116934;28;20035;-76
2021/01/22 05:33:26;;;;;;;0.32;0.32;;;;;;;;;;5115674;28;20151;-76
2021/01/22 05:35:51;;;;;;;0.20;0.20;;;;;;;;;;5116871;28;20046;-76
2021/01/22 05:38:17;;;;;;;4.88;1.50;;;;;;;;;;5116779;28;20404;-76
2021/01/22 05:40:49;;;;;;;0.28;0.28;;;;;;;;;;5116644;28;20028;-76
2021/01/22 05:43:15;;;;;;;0.30;0.30;;;;;;;;;;5114959;28;20511;-76
2021/01/22 05:45:42;;;;;;;0.10;0.10;;;;;;;;;;5115010;28;20051;-76
2021/01/22 05:48:22;;;;;;;0.20;0.20;;;;;;;;;;5116419;28;20047;-76
2021/01/22 05:50:50;;;;;;;0.30;0.30;;;;;;;;;;5097505;28;20114;-76
2021/01/22 05:53:17;;;;;;;0.20;0.20;;;;;;;;;;5094566;28;20028;-76
2021/01/22 05:55:42;;;;;;;0.20;0.20;;;;;;;;;;5095707;28;20044;-76
2021/01/22 05:58:08;;;;;;;0.25;0.25;;;;;;;;;;5094753;28;20077;-77
2021/01/22 06:00:33;;;;;;;0.25;0.25;;;;;;;;;;5094672;28;20032;-76
2021/01/22 06:02:59;;;;;;;0.35;0.30;;;;;;;;;;5095963;28;20032;-76
2021/01/22 06:05:26;;;;;;;0.32;0.30;;;;;;;;;;5095705;28;20525;-77
2021/01/22 06:08:08;;;;;;;0.30;0.30;;;;;;;;;;5095846;28;20370;-77
2021/01/22 06:10:40;;;;;;;0.30;0.30;;;;;;;;;;5095262;28;20382;-77
2021/01/22 06:13:09;;;;;;;0.20;0.20;;;;;;;;;;5095573;28;20063;-77
2021/01/22 06:15:35;;;;;;;0.85;0.50;;;;;;;;;;5095340;28;20038;-77
2021/01/22 06:18:02;;;;;;;1.58;0.50;;;;;;;;;;5095751;28;20035;-78
2021/01/22 06:20:28;;;;;;;0.30;0.30;;;;;;;;;;5095484;28;20420;-78
2021/01/22 06:23:13;;;;;;;0.77;0.40;;;;;;;;;;5094614;28;20419;-77
2021/01/22 06:25:41;;;;;;;0.47;0.45;;;;;;;;;;5095058;28;20115;-77
2021/01/22 06:28:09;;;;;;;0.43;0.40;;;;;;;;;;5095476;28;20032;-77
2021/01/22 06:30:36;;;;;;;3.25;0.68;;;;;;;;;;5094878;28;20043;-77
2021/01/22 06:33:03;;;;;;;0.60;0.50;;;;;;;;;;5095164;28;20039;-77
2021/01/22 06:35:32;;;;;;;0.50;0.50;;;;;;;;;;5094850;28;20101;-77
2021/01/22 06:37:57;;;;;;;0.65;0.65;;;;;;;;;;5095040;28;20031;-76
2021/01/22 06:40:24;;;;;;;0.70;0.70;;;;;;;;;;5094928;28;20044;-77
2021/01/22 06:42:49;;;;;;;0.70;0.70;;;;;;;;;;5095044;28;20114;-76
2021/01/22 06:45:18;;;;;;;1.33;1.02;;;;;;;;;;5094706;28;20077;-77
2021/01/22 06:47:57;;;;;;;2.85;1.65;;;;;;;;;;5095214;28;20024;-77
2021/01/22 06:50:23;;;;;;;1.23;1.13;;;;;;;;;;5095344;28;20115;-77
2021/01/22 06:53:08;;;;;;;2.53;0.90;;;;;;;;;;5095955;28;20042;-76
2021/01/22 06:55:59;;;;;;;1.58;0.93;;;;;;;;;;5093457;28;20032;-75
2021/01/22 06:58:26;;;;;;;0.63;0.63;;;;;;;;;;5095052;28;20039;-74
2021/01/22 07:00:53;;;;;;;0.60;0.60;;;;;;;;;;5094587;28;20397;-76
2021/01/22 07:03:48;;;;;;;0.73;0.73;;;;;;;;;;5095216;28;20470;-74
2021/01/22 07:06:31;;;;;;;0.70;0.70;;;;;;;;;;5072260;28;20052;-75
2021/01/22 07:09:00;;;;;;;0.93;0.60;;;;;;;;;;5094793;28;20055;-76
2021/01/22 07:11:46;;;;;;;1.00;0.90;;;;;;;;;;5093974;28;20028;-76
2021/01/22 07:14:34;;;;;;;0.70;0.60;;;;;;;;;;5094722;28;20039;-75
2021/01/22 07:17:16;;;;;;;1.10;1.00;;;;;;;;;;5093996;28;20452;-77
2021/01/22 07:19:49;;;;;;;5.78;1.05;;;;;;;;;;5094346;28;20032;-77
2021/01/22 07:22:15;;;;;;;0.98;0.98;;;;;;;;;;5093328;28;20028;-77
2021/01/22 07:24:43;;;;;;;1.52;1.17;;;;;;;;;;5094003;28;20390;-75
2021/01/22 07:27:13;;;;;;;1.38;1.27;;;;;;;;;;5094099;28;20141;-76
2021/01/22 07:29:38;;;;;;;1.42;1.25;;;;;;;;;;5094203;28;20024;-74
2021/01/22 07:32:05;;;;;;;2.83;1.70;;;;;;;;;;5093762;28;20032;-76
2021/01/22 07:34:41;;;;;;;3.80;1.83;;;;;;;;;;5093324;28;20035;-76
2021/01/22 07:37:08;;;;;;;1.40;1.30;;;;;;;;;;5094143;28;20075;-75
2021/01/22 07:39:34;;;;;;;1.80;1.70;;;;;;;;;;5092436;28;20124;-76
2021/01/22 07:42:07;;;;;;;2.80;2.22;;;;;;;;;;5094807;28;20063;-75
2021/01/22 07:44:33;;;;;;;3.30;2.05;;;;;;;;;;5094788;28;20402;-75
2021/01/22 07:46:58;;;;;;;2.88;2.22;;;;;;;;;;5094093;28;20051;-76
2021/01/22 07:49:24;;;;;;;3.17;2.42;;;;;;;;;;5087109;28;20074;-76
2021/01/22 07:51:49;;;;;;;5.53;2.70;;;;;;;;;;5073500;28;20371;-77
2021/01/22 07:54:14;;;;;;;4.00;2.33;;;;;;;;;;5072320;28;20589;-77
2021/01/22 07:56:42;;;;;;;2.42;2.03;;;;;;;;;;5076633;28;20093;-77
2021/01/22 07:59:10;;;;;;;3.28;2.40;;;;;;;;;;5073972;28;20362;-76
2021/01/22 08:01:38;;;;;;;2.92;2.30;;;;;;;;;;5072167;28;20112;-75
2021/01/22 08:04:05;;;;;;;2.63;1.85;;;;;;;;;;5071806;28;20046;-75
2021/01/22 08:06:47;;;;;;;2.35;2.00;;;;;;;;;;5072875;28;20108;-77
2021/01/22 08:09:13;;;;;;;2.72;2.00;;;;;;;;;;5072963;28;20042;-77
2021/01/22 08:11:40;;;;;;;2.60;1.70;;;;;;;;;;5072593;28;20445;-76
2021/01/22 08:14:06;;;;;;;2.70;1.70;;;;;;;;;;5072966;28;20119;-76
2021/01/22 08:16:32;;;;;;;2.22;1.85;;;;;;;;;;5073647;28;20072;-77
2021/01/22 08:18:59;;;;;;;3.30;1.85;;;;;;;;;;5079071;28;20436;-77
2021/01/22 08:21:29;;;;;;;2.50;1.40;;;;;;;;;;5092782;28;20024;-76
2021/01/22 08:23:56;;;;;;;3.67;1.50;;;;;;;;;;5084397;28;20036;-78
2021/01/22 08:26:22;;;;;;;1.75;1.23;;;;;;;;;;5084231;28;20375;-77
2021/01/22 08:28:51;;;;;;;6.18;2.75;;;;;;;;;;5085781;28;20035;-76
2021/01/22 08:31:17;;;;;;;8.38;3.35;;;;;;;;;;5089876;28;20369;-77
2021/01/22 08:33:43;;;;;;;7.05;2.80;;;;;;;;;;5081308;28;20020;-78
2021/01/22 08:36:09;;;;;;;4.03;1.63;;;;;;;;;;5089366;28;20048;-76
2021/01/22 08:38:35;;;;;;;2.72;1.65;;;;;;;;;;5093128;28;20060;-77
2021/01/22 08:41:00;;;;;;;2.72;1.85;;;;;;;;;;5093209;28;20404;-77
2021/01/22 08:43:26;;;;;;;1.45;1.20;;;;;;;;;;5093138;28;20054;-76
2021/01/22 08:46:11;;;;;;;1.17;1.00;;;;;;;;;;5091670;28;20052;-76
2021/01/22 08:48:37;;;;;;;2.75;1.00;;;;;;;;;;5093035;28;20036;-76
2021/01/22 08:51:03;;;;;;;1.20;1.10;;;;;;;;;;5093025;28;20051;-76
2021/01/22 08:53:31;;;;;;;1.52;1.10;;;;;;;;;;5091986;28;20036;-76
2021/01/22 08:56:11;;;;;;;1.30;1.10;;;;;;;;;;5092347;28;20032;-77
2021/01/22 08:59:03;;;;;;;4.50;1.20;;;;;;;;;;5093020;28;20450;-76
2021/01/22 09:01:57;;;;;;;3.00;1.75;;;;;;;;;;5092922;28;20166;-76
2021/01/22 09:04:34;;;;;;;2.50;1.60;;;;;;;;;;5093158;28;20058;-76
2021/01/22 09:07:01;;;;;;;3.10;1.20;;;;;;;;;;5092910;28;20039;-76
2021/01/22 09:09:38;;;;;;;1.17;1.00;;;;;;;;;;5092797;28;20058;-74
2021/01/22 09:12:24;;;;;;;0.93;0.90;;;;;;;;;;5092980;28;20401;-74
2021/01/22 09:14:51;;;;;;;3.90;1.10;;;;;;;;;;5093484;28;20390;-75
2021/01/22 09:17:22;;;;;;;0.82;0.82;;;;;;;;;;5093052;28;20036;-74
2021/01/22 09:19:58;;;;;;;2.13;1.20;;;;;;;;;;5096482;28;20034;-73
2021/01/22 09:22:30;;;;;;;1.02;0.93;;;;;;;;;;5078485;28;20036;-76
2021/01/22 09:24:55;;;;;;;2.78;1.00;;;;;;;;;;5096333;28;20043;-76
2021/01/22 09:27:21;;;;;;;1.77;0.90;;;;;;;;;;5096564;28;20032;-76
2021/01/22 09:29:46;;;;;;;1.70;1.17;;;;;;;;;;5096466;28;20101;-75
2021/01/22 09:32:12;;;;;;;4.63;0.90;;;;;;;;;;5096385;28;20187;-76
2021/01/22 09:34:37;;;;;;;1.10;0.95;;;;;;;;;;5096424;28;20032;-76
2021/01/22 09:37:03;;;;;;;0.98;0.82;;;;;;;;;;5096538;28;20036;-76
2021/01/22 09:39:29;;;;;;;0.70;0.70;;;;;;;;;;5096327;28;20404;-76
2021/01/22 09:41:54;;;;;;;0.88;0.88;;;;;;;;;;5096187;28;20036;-75
2021/01/22 09:44:19;;;;;;;2.20;1.02;;;;;;;;;;5096360;28;20039;-76
2021/01/22 09:46:45;;;;;;;1.50;1.13;;;;;;;;;;5095964;28;20059;-76
2021/01/22 09:49:10;;;;;;;1.02;0.80;;;;;;;;;;5096204;28;20031;-76
2021/01/22 09:51:36;;;;;;;1.50;0.93;;;;;;;;;;5096075;28;20469;-75
2021/01/22 09:54:01;;;;;;;1.80;0.98;;;;;;;;;;5096144;28;20115;-75
2021/01/22 09:56:27;;;;;;;1.83;1.08;;;;;;;;;;5095671;28;20511;-76
2021/01/22 09:58:52;;;;;;;2.13;0.82;;;;;;;;;;5096277;28;20130;-77
2021/01/22 10:01:17;;;;;;;1.77;0.85;;;;;;;;;;5094499;28;20036;-76
2021/01/22 10:03:43;;;;;;;2.60;0.90;;;;;;;;;;5095901;28;20103;-76
2021/01/22 10:06:12;;;;;;;2.15;0.73;;;;;;;;;;5095905;28;20474;-76
2021/01/22 10:08:38;;;;;;;1.58;1.00;;;;;;;;;;5095841;28;20025;-76
2021/01/22 10:11:03;;;;;;;1.77;1.30;;;;;;;;;;5095340;28;20525;-76
2021/01/22 10:13:29;;;;;;;1.23;0.80;;;;;;;;;;5095567;28;20110;-76
2021/01/22 10:15:55;;;;;;;1.15;0.90;;;;;;;;;;5095949;28;20036;-76
2021/01/22 10:18:20;;;;;;;3.22;0.90;;;;;;;;;;5095433;28;20489;-76
2021/01/22 10:20:50;;;;;;;0.93;0.82;;;;;;;;;;5095555;28;20499;-76
2021/01/22 10:23:15;;;;;;;1.08;0.80;;;;;;;;;;5094355;28;20032;-76
2021/01/22 10:25:40;;;;;;;1.40;1.00;;;;;;;;;;5095189;28;20054;-75
2021/01/22 10:28:06;;;;;;;1.30;1.13;;;;;;;;;;5095289;28;20035;-75
2021/01/22 10:30:31;;;;;;;1.35;1.20;;;;;;;;;;5094220;28;20043;-76
2021/01/22 10:32:57;;;;;;;1.20;1.10;;;;;;;;;;5095233;28;20040;-76
2021/01/22 10:35:22;;;;;;;2.25;1.00;;;;;;;;;;5095332;28;20044;-76
2021/01/22 10:37:47;;;;;;;1.70;0.98;;;;;;;;;;5095042;28;20067;-76
2021/01/22 10:40:13;;;;;;;0.80;0.80;;;;;;;;;;5094508;28;20089;-76
2021/01/22 10:42:38;;;;;;;4.80;1.42;;;;;;;;;;5094500;28;20043;-76
2021/01/22 10:45:04;;;;;;;1.92;1.33;;;;;;;;;;5094948;28;20059;-76
2021/01/22 10:47:30;;;;;;;1.75;1.27;;;;;;;;;;5093828;28;20028;-75
2021/01/22 10:49:56;;;;;;;6.43;2.92;;;;;;;;;;5094926;28;20031;-76
2021/01/22 10:52:22;;;;;;;10.43;5.30;;;;;;;;;;5095052;28;20514;-76
2021/01/22 10:54:47;;;;;;;6.35;4.85;;;;;;;;;;5094602;28;20032;-76
2021/01/22 10:57:12;;;;;;;6.03;4.22;;;;;;;;;;5094777;28;20032;-76
2021/01/22 10:59:38;;;;;;;4.22;3.78;;;;;;;;;;5093407;28;20389;-76
2021/01/22 11:02:08;;;;;;;4.40;3.00;;;;;;;;;;5094656;28;20401;-76
2021/01/22 11:04:34;;;;;;;3.20;1.92;;;;;;;;;;5094666;28;20039;-75
2021/01/22 11:07:00;;;;;;;2.40;1.27;;;;;;;;;;5094437;28;20465;-76
2021/01/22 11:09:25;;;;;;;3.53;1.10;;;;;;;;;;5094631;28;20042;-76
2021/01/22 11:11:50;;;;;;;1.40;1.30;;;;;;;;;;5092925;28;20043;-76
2021/01/22 11:14:16;;;;;;;2.97;1.50;;;;;;;;;;5094422;28;20047;-76
2021/01/22 11:16:41;;;;;;;4.55;1.00;;;;;;;;;;5094381;28;20055;-76
2021/01/22 11:19:06;;;;;;;1.88;1.15;;;;;;;;;;5093288;28;20047;-76
2021/01/22 11:21:35;;;;;;;3.25;1.70;;;;;;;;;;5094421;28;20039;-76
2021/01/22 11:24:00;;;;;;;2.47;1.30;;;;;;;;;;5094141;28;20068;-76
2021/01/22 11:26:26;;;;;;;3.53;1.20;;;;;;;;;;5093963;28;20121;-76
2021/01/22 11:28:52;;;;;;;2.75;1.67;;;;;;;;;;5094157;28;20402;-76
2021/01/22 11:31:17;;;;;;;4.60;1.70;;;;;;;;;;5094120;28;20042;-76
2021/01/22 11:33:44;;;;;;;2.97;1.45;;;;;;;;;;5094130;28;20034;-76
2021/01/22 11:36:10;;;;;;;2.75;2.03;;;;;;;;;;5094140;28;20028;-76
2021/01/22 11:38:35;;;;;;;5.35;1.80;;;;;;;;;;5093965;28;20043;-76
2021/01/22 11:41:01;;;;;;;2.55;1.33;;;;;;;;;;5093572;28;20032;-76
2021/01/22 11:43:26;;;;;;;2.25;1.17;;;;;;;;;;5092638;28;20032;-77
2021/01/22 11:45:51;;;;;;;3.13;1.55;;;;;;;;;;5093178;28;20417;-77
2021/01/22 11:48:17;;;;;;;2.78;1.40;;;;;;;;;;5093863;28;20465;-76
2021/01/22 11:50:42;;;;;;;2.55;1.75;;;;;;;;;;5093807;28;20047;-76
2021/01/22 11:53:07;;;;;;;5.28;1.65;;;;;;;;;;5093603;28;20126;-76
2021/01/22 11:55:33;;;;;;;3.13;1.80;;;;;;;;;;5092310;28;20071;-76
2021/01/22 11:57:58;;;;;;;3.53;1.75;;;;;;;;;;5093741;28;20032;-76
2021/01/22 12:00:24;;;;;;;3.97;1.23;;;;;;;;;;5093698;28;20055;-76
2021/01/22 12:02:49;;;;;;;3.33;1.30;;;;;;;;;;5087993;28;20401;-76
2021/01/22 12:05:14;;;;;;;3.65;1.33;;;;;;;;;;5082064;28;20433;-76
2021/01/22 12:07:40;;;;;;;2.38;1.90;;;;;;;;;;5081665;28;20020;-76
2021/01/22 12:10:06;;;;;;;3.05;1.60;;;;;;;;;;5075337;28;20405;-76
2021/01/22 12:12:31;;;;;;;2.17;1.33;;;;;;;;;;5073922;28;20056;-77
2021/01/22 12:14:56;;;;;;;1.55;1.10;;;;;;;;;;5074854;28;20107;-78
2021/01/22 12:17:22;;;;;;;2.70;1.23;;;;;;;;;;5074083;28;20216;-78
2021/01/22 12:19:47;;;;;;;5.15;1.40;;;;;;;;;;5071757;28;20462;-76
2021/01/22 12:22:13;;;;;;;3.25;1.30;;;;;;;;;;5073248;28;20048;-76
2021/01/22 12:24:38;;;;;;;2.70;1.58;;;;;;;;;;5071532;28;20086;-77
2021/01/22 12:27:04;;;;;;;2.00;1.63;;;;;;;;;;5072415;28;20036;-77
2021/01/22 12:29:30;;;;;;;1.77;1.60;;;;;;;;;;5088805;28;20036;-77
2021/01/22 12:31:55;;;;;;;3.33;1.67;;;;;;;;;;5072984;28;20390;-76
2021/01/22 12:34:22;;;;;;;1.88;1.42;;;;;;;;;;5073391;28;20149;-77
2021/01/22 12:36:47;;;;;;;3.70;1.80;;;;;;;;;;5089275;28;20486;-75
2021/01/22 12:39:12;;;;;;;3.17;1.58;;;;;;;;;;5072870;28;20040;-76
2021/01/22 12:41:38;;;;;;;1.75;1.25;;;;;;;;;;5076662;28;20055;-79
2021/01/22 12:44:04;;;;;;;4.38;1.77;;;;;;;;;;5075927;28;20043;-77
2021/01/22 12:46:29;;;;;;;3.88;1.65;;;;;;;;;;5072369;28;20193;-78
2021/01/22 12:48:55;;;;;;;6.57;1.88;;;;;;;;;;5074604;28;20036;-75
2021/01/22 12:51:20;;;;;;;3.08;1.70;;;;;;;;;;5093563;28;20039;-75
2021/01/22 12:53:46;;;;;;;6.70;2.35;;;;;;;;;;5097088;28;20110;-75
2021/01/22 12:56:11;;;;;;;3.35;1.80;;;;;;;;;;5098525;28;20036;-74
2021/01/22 12:58:37;;;;;;;5.22;2.28;;;;;;;;;;5097121;28;20036;-75
2021/01/22 13:01:02;;;;;;;5.50;2.05;;;;;;;;;;5097889;28;20032;-77
2021/01/22 13:03:27;;;;;;;5.25;2.08;;;;;;;;;;5097233;28;20111;-76
2021/01/22 13:05:53;;;;;;;6.22;2.65;;;;;;;;;;5096941;28;20486;-76
2021/01/22 13:08:18;;;;;;;3.28;2.00;;;;;;;;;;5095008;28;20012;-75
2021/01/22 13:10:44;;;;;;;4.03;2.38;;;;;;;;;;5095288;28;20028;-75
2021/01/22 13:13:09;;;;;;;3.33;2.15;;;;;;;;;;5096782;28;20040;-75
2021/01/22 13:15:34;;;;;;;3.42;2.40;;;;;;;;;;5095560;28;20054;-75
2021/01/22 13:18:00;;;;;;;5.85;2.67;;;;;;;;;;5096606;28;20545;-77
2021/01/22 13:20:25;;;;;;;4.25;2.35;;;;;;;;;;5112070;28;20115;-77
2021/01/22 13:22:51;;;;;;;4.43;2.65;;;;;;;;;;5115980;28;20039;-77
2021/01/22 13:25:16;;;;;;;3.67;2.33;;;;;;;;;;5115249;28;20031;-77
2021/01/22 13:27:42;;;;;;;4.80;2.17;;;;;;;;;;5116809;28;20038;-77
2021/01/22 13:30:10;;;;;;;2.88;2.20;;;;;;;;;;5115603;28;20036;-77
2021/01/22 13:32:36;;;;;;;3.83;2.53;;;;;;;;;;5117102;28;20397;-75
2021/01/22 13:35:02;;;;;;;2.97;2.30;;;;;;;;;;5116912;28;20028;-76
2021/01/22 13:37:28;;;;;;;5.57;2.40;;;;;;;;;;5116850;28;20039;-77
2021/01/22 13:39:53;;;;;;;6.13;2.17;;;;;;;;;;5116831;28;20037;-77
2021/01/22 13:42:19;;;;;;;3.22;2.00;;;;;;;;;;5116475;28;20058;-76
2021/01/22 13:44:44;;;;;;;4.43;2.20;;;;;;;;;;5115980;28;20059;-77
2021/01/22 13:47:10;;;;;;;6.65;2.42;;;;;;;;;;5116449;28;20565;-76
2021/01/22 13:49:36;;;;;;;3.83;2.35;;;;;;;;;;5108223;28;20531;-76
2021/01/22 13:52:02;;;;;;;3.47;2.35;;;;;;;;;;5094891;28;20485;-77
2021/01/22 13:54:27;;;;;;;8.63;2.92;;;;;;;;;;5094572;28;20043;-77
2021/01/22 13:56:53;;;;;;;5.15;2.45;;;;;;;;;;5095616;28;20036;-77
2021/01/22 13:59:18;;;;;;;4.75;2.22;;;;;;;;;;5096136;28;20092;-77
2021/01/22 14:01:43;;;;;;;4.20;2.60;;;;;;;;;;5094544;28;20058;-77
2021/01/22 14:04:09;;;;;;;4.03;2.45;;;;;;;;;;5094624;28;20032;-77
2021/01/22 14:06:36;;;;;;;7.82;2.85;;;;;;;;;;5095635;28;20036;-77
2021/01/22 14:09:02;;;;;;;3.10;1.88;;;;;;;;;;5095798;28;20070;-77
2021/01/22 14:11:27;;;;;;;5.45;2.60;;;;;;;;;;5094050;28;20075;-77
2021/01/22 14:13:53;;;;;;;3.03;2.05;;;;;;;;;;5094715;28;20059;-77
2021/01/22 14:16:18;;;;;;;3.50;2.00;;;;;;;;;;5095562;28;20031;-76
2021/01/22 14:18:43;;;;;;;3.60;2.65;;;;;;;;;;5095407;28;20040;-76
2021/01/22 14:21:09;;;;;;;4.50;2.50;;;;;;;;;;5115737;28;20032;-76
2021/01/22 14:23:35;;;;;;;5.70;3.03;;;;;;;;;;5114657;28;20050;-76
2021/01/22 14:26:00;;;;;;;3.35;2.25;;;;;;;;;;5115432;28;20036;-77
2021/01/22 14:28:25;;;;;;;4.07;2.50;;;;;;;;;;5114131;28;20122;-76
2021/01/22 14:30:51;;;;;;;2.72;2.33;;;;;;;;;;5115754;28;20057;-76
2021/01/22 14:33:16;;;;;;;3.33;2.15;;;;;;;;;;5115803;28;20046;-76
2021/01/22 14:35:42;;;;;;;6.85;3.80;;;;;;;;;;5115590;28;20059;-76
2021/01/22 14:38:07;;;;;;;4.68;2.83;;;;;;;;;;5115410;28;20042;-76
2021/01/22 14:40:33;;;;;;;4.63;2.65;;;;;;;;;;5115318;28;20106;-76
2021/01/22 14:42:58;;;;;;;5.90;2.97;;;;;;;;;;5115293;28;20035;-76
2021/01/22 14:45:24;;;;;;;3.75;2.25;;;;;;;;;;5115248;28;20134;-76